createdAt,value
2023-01-02T00:00:00.898Z,2.00
2023-01-02T00:03:03.831Z,2.22
2023-01-02T00:06:07.808Z,2.00
2023-01-02T00:09:10.637Z,2.40
2023-01-02T00:12:13.757Z,2.20
2023-01-02T00:15:18.210Z,2.22
2023-01-02T00:18:21.046Z,2.38
2023-01-02T00:21:23.894Z,2.40
2023-01-02T00:24:26.709Z,2.25
2023-01-02T00:27:29.674Z,2.70
2023-01-02T00:30:38.275Z,2.30
2023-01-02T00:33:41.601Z,2.25
2023-01-02T00:36:44.466Z,1.88
2023-01-02T00:39:47.322Z,2.20
2023-01-02T00:42:50.236Z,2.10
2023-01-02T00:45:54.508Z,2.38
2023-01-02T00:48:57.414Z,2.40
2023-01-02T00:52:00.317Z,2.28
2023-01-02T00:55:03.238Z,2.40
2023-01-02T00:58:06.131Z,2.80
2023-01-02T01:01:11.304Z,2.33
2023-01-02T01:04:15.033Z,2.50
2023-01-02T01:07:17.981Z,2.20
2023-01-02T01:10:21.198Z,2.45
2023-01-02T01:13:24.005Z,2.70
2023-01-02T01:16:28.309Z,2.33
2023-01-02T01:19:31.273Z,2.30
2023-01-02T01:22:34.397Z,2.33
2023-01-02T01:25:38.501Z,2.50
2023-01-02T01:28:41.706Z,2.20
2023-01-02T01:31:45.989Z,2.28
2023-01-02T01:34:48.905Z,2.17
2023-01-02T01:37:51.790Z,2.40
2023-01-02T01:40:54.697Z,2.30
2023-01-02T01:43:59.131Z,2.58
2023-01-02T01:47:03.739Z,2.58
2023-01-02T01:50:10.231Z,2.47
2023-01-02T01:53:17.483Z,2.35
2023-01-02T01:56:20.440Z,2.50
2023-01-02T01:59:23.559Z,2.40
2023-01-02T02:02:29.904Z,2.70
2023-01-02T02:05:34.157Z,2.50
2023-01-02T02:08:45.058Z,2.60
2023-01-02T02:11:48.168Z,2.50
2023-01-02T02:14:51.002Z,2.40
2023-01-02T02:18:05.924Z,2.20
2023-01-02T02:21:21.027Z,2.25
2023-01-02T02:24:47.182Z,2.55
2023-01-02T02:28:10.874Z,2.53
2023-01-02T02:31:21.568Z,2.30
2023-01-02T02:34:29.539Z,2.70
2023-01-02T02:37:39.119Z,2.60
2023-01-02T02:40:55.500Z,2.60
2023-01-02T02:44:07.124Z,2.60
2023-01-02T02:47:18.661Z,2.10
2023-01-02T02:50:29.968Z,2.10
2023-01-02T02:53:38.641Z,2.50
2023-01-02T02:56:42.930Z,2.40
2023-01-02T02:59:45.857Z,2.42
2023-01-02T03:02:50.352Z,2.75
2023-01-02T03:06:07.989Z,2.70
2023-01-02T03:09:24.338Z,2.35
2023-01-02T03:12:37.683Z,2.97
2023-01-02T03:15:43.073Z,2.70
2023-01-02T03:18:54.958Z,2.30
2023-01-02T03:22:01.932Z,2.53
2023-01-02T03:25:06.103Z,2.53
2023-01-02T03:28:11.641Z,2.35
2023-01-02T03:31:18.953Z,2.67
2023-01-02T03:34:26.502Z,2.40
2023-01-02T03:37:34.747Z,2.95
2023-01-02T03:40:43.344Z,2.45
2023-01-02T03:43:56.333Z,2.63
2023-01-02T03:47:09.562Z,2.90
2023-01-02T03:50:20.169Z,2.40
2023-01-02T03:53:23.672Z,2.50
2023-01-02T03:56:36.271Z,2.60
2023-01-02T03:59:47.977Z,2.50
2023-01-02T04:02:56.523Z,2.90
2023-01-02T04:06:05.757Z,2.25
2023-01-02T04:09:11.785Z,2.70
2023-01-02T04:12:20.301Z,2.60
2023-01-02T04:15:27.571Z,2.90
2023-01-02T04:18:34.536Z,2.30
2023-01-02T04:21:41.390Z,2.55
2023-01-02T04:24:49.555Z,2.88
2023-01-02T04:27:56.118Z,2.50
2023-01-02T04:31:07.068Z,2.70
2023-01-02T04:34:14.045Z,2.40
2023-01-02T04:37:34.531Z,2.70
2023-01-02T04:40:38.286Z,2.28
2023-01-02T04:43:41.181Z,2.35
2023-01-02T04:46:44.250Z,2.45
2023-01-02T04:49:47.232Z,3.00
2023-01-02T04:52:51.429Z,2.30
2023-01-02T04:55:57.351Z,2.55
2023-01-02T04:59:00.264Z,2.50
2023-01-02T05:02:03.205Z,2.60
2023-01-02T05:05:07.590Z,2.55
2023-01-02T05:08:16.144Z,2.80
2023-01-02T05:11:21.066Z,2.65
2023-01-02T05:14:23.904Z,2.53
2023-01-02T05:17:27.137Z,2.40
2023-01-02T05:20:30.066Z,2.53
2023-01-02T05:23:51.582Z,2.55
2023-01-02T05:26:54.799Z,2.60
2023-01-02T05:29:57.652Z,2.70
2023-01-02T05:33:00.506Z,2.80
2023-01-02T05:36:06.684Z,2.20
2023-01-02T05:39:12.150Z,2.40
2023-01-02T05:42:15.047Z,2.42
2023-01-02T05:45:18.080Z,2.60
2023-01-02T05:48:20.963Z,2.60
2023-01-02T05:51:23.843Z,2.28
2023-01-02T05:54:28.001Z,2.72
2023-01-02T05:57:30.857Z,2.60
2023-01-02T06:00:33.721Z,2.50
2023-01-02T06:03:36.788Z,2.63
2023-01-02T06:06:40.931Z,2.85
2023-01-02T06:09:45.224Z,2.40
2023-01-02T06:12:48.037Z,2.33
2023-01-02T06:15:51.308Z,2.30
2023-01-02T06:18:54.470Z,2.45
2023-01-02T06:21:57.293Z,2.35
2023-01-02T06:25:01.597Z,2.10
2023-01-02T06:28:06.281Z,2.50
2023-01-02T06:31:10.984Z,2.80
2023-01-02T06:34:14.140Z,2.20
2023-01-02T06:37:17.807Z,2.35
2023-01-02T06:40:22.115Z,2.20
2023-01-02T06:43:25.766Z,2.45
2023-01-02T06:46:28.705Z,2.40
2023-01-02T06:49:31.549Z,2.67
2023-01-02T06:52:34.444Z,2.65
2023-01-02T06:55:38.696Z,2.35
2023-01-02T06:58:41.630Z,2.30
2023-01-02T07:01:44.846Z,2.33
2023-01-02T07:04:47.823Z,2.42
2023-01-02T07:07:50.859Z,2.40
2023-01-02T07:10:55.101Z,2.65
2023-01-02T07:13:58.036Z,1.98
2023-01-02T07:17:00.868Z,2.60
2023-01-02T07:20:03.841Z,2.20
2023-01-02T07:23:06.656Z,2.55
2023-01-02T07:26:11.409Z,2.42
2023-01-02T07:29:14.279Z,2.55
2023-01-02T07:32:18.854Z,2.55
2023-01-02T07:35:23.826Z,2.28
2023-01-02T07:38:27.024Z,2.20
2023-01-02T07:41:31.183Z,2.15
2023-01-02T07:44:34.037Z,2.35
2023-01-02T07:47:36.880Z,2.58
2023-01-02T07:50:39.770Z,2.47
2023-01-02T07:53:42.767Z,2.70
2023-01-02T07:56:47.013Z,2.67
2023-01-02T07:59:50.213Z,2.25
2023-01-02T08:02:55.085Z,1.88
2023-01-02T08:06:04.085Z,2.47
2023-01-02T08:09:10.730Z,2.53
2023-01-02T08:12:14.981Z,2.50
2023-01-02T08:15:17.941Z,2.50
2023-01-02T08:18:20.775Z,2.65
2023-01-02T08:21:24.374Z,2.95
2023-01-02T08:24:27.189Z,2.90
2023-01-02T08:27:31.374Z,2.80
2023-01-02T08:30:34.335Z,2.70
2023-01-02T08:33:37.249Z,2.47
2023-01-02T08:36:40.260Z,3.10
2023-01-02T08:39:43.160Z,2.67
2023-01-02T08:42:47.478Z,3.00
2023-01-02T08:45:50.377Z,2.97
2023-01-02T08:48:53.377Z,2.75
2023-01-02T08:51:56.305Z,3.05
2023-01-02T08:55:00.802Z,2.90
2023-01-02T08:58:05.175Z,2.80
2023-01-02T09:01:08.069Z,3.03
2023-01-02T09:04:13.165Z,2.60
2023-01-02T09:07:16.416Z,3.05
2023-01-02T09:10:19.323Z,3.08
2023-01-02T09:13:23.519Z,2.90
2023-01-02T09:16:26.894Z,3.05
2023-01-02T09:19:29.784Z,2.65
2023-01-02T09:22:32.622Z,3.10
2023-01-02T09:25:35.877Z,3.22
2023-01-02T09:28:40.187Z,2.92
2023-01-02T09:31:43.159Z,3.17
2023-01-02T09:34:50.390Z,2.80
2023-01-02T09:37:53.603Z,3.30
2023-01-02T09:40:57.456Z,2.70
2023-01-02T09:44:06.699Z,2.92
2023-01-02T09:47:15.440Z,3.25
2023-01-02T09:50:24.218Z,2.75
2023-01-02T09:53:27.740Z,3.10
2023-01-02T09:56:35.183Z,2.75
2023-01-02T09:59:45.219Z,2.85
2023-01-02T10:03:07.630Z,2.90
2023-01-02T10:06:15.928Z,2.75
2023-01-02T10:09:27.690Z,3.05
2023-01-02T10:12:36.028Z,3.13
2023-01-02T10:15:45.829Z,3.00
2023-01-02T10:18:53.576Z,2.97
2023-01-02T10:22:00.135Z,2.83
2023-01-02T10:25:09.270Z,2.95
2023-01-02T10:28:20.550Z,3.28
2023-01-02T10:31:30.846Z,3.08
2023-01-02T10:34:40.679Z,3.15
2023-01-02T10:37:43.606Z,2.63
2023-01-02T10:40:49.558Z,2.90
2023-01-02T10:43:55.400Z,3.08
2023-01-02T10:47:07.521Z,2.85
2023-01-02T10:50:18.622Z,3.22
2023-01-02T10:53:23.385Z,3.08
2023-01-02T10:56:26.296Z,2.95
2023-01-02T10:59:30.642Z,2.70
2023-01-02T11:02:42.110Z,2.72
2023-01-02T11:05:48.757Z,3.17
2023-01-02T11:08:58.229Z,2.67
2023-01-02T11:12:10.282Z,2.78
2023-01-02T11:15:14.942Z,3.03
2023-01-02T11:18:23.672Z,2.60
2023-01-02T11:21:30.154Z,2.70
2023-01-02T11:24:35.326Z,2.60
2023-01-02T11:27:43.230Z,2.80
2023-01-02T11:30:48.662Z,3.22
2023-01-02T11:33:53.283Z,2.80
2023-01-02T11:37:11.020Z,2.53
2023-01-02T11:40:27.304Z,2.45
2023-01-02T11:43:52.567Z,3.03
2023-01-02T11:46:56.761Z,2.95
2023-01-02T11:50:02.195Z,2.33
2023-01-02T11:53:15.933Z,3.17
2023-01-02T11:56:23.267Z,2.70
2023-01-02T11:59:29.952Z,2.97
2023-01-02T12:02:40.701Z,2.88
2023-01-02T12:05:56.656Z,2.95
2023-01-02T12:09:06.839Z,2.95
2023-01-02T12:12:29.647Z,3.25
2023-01-02T12:15:46.800Z,2.60
2023-01-02T12:19:09.392Z,2.75
2023-01-02T12:22:32.387Z,3.13
2023-01-02T12:25:53.701Z,2.70
2023-01-02T12:29:47.227Z,3.22
2023-01-02T12:32:56.461Z,2.63
2023-01-02T12:36:11.335Z,2.80
2023-01-02T12:39:50.238Z,2.80
2023-01-02T12:43:21.877Z,2.80
2023-01-02T12:46:42.249Z,2.60
2023-01-02T12:50:02.086Z,2.70
2023-01-02T12:53:20.090Z,3.15
2023-01-02T12:56:34.032Z,2.60
2023-01-02T12:59:53.395Z,2.60
2023-01-02T13:03:22.631Z,2.65
2023-01-02T13:06:43.912Z,2.85
2023-01-02T13:09:50.868Z,2.75
2023-01-02T13:12:57.283Z,2.55
2023-01-02T13:16:08.445Z,2.90
2023-01-02T13:19:25.010Z,3.13
2023-01-02T13:22:37.765Z,2.80
2023-01-02T13:25:45.926Z,2.95
2023-01-02T13:28:57.059Z,2.53
2023-01-02T13:32:00.029Z,2.60
2023-01-02T13:35:04.918Z,2.50
2023-01-02T13:38:12.095Z,2.67
2023-01-02T13:41:18.510Z,3.10
2023-01-02T13:44:32.849Z,2.50
2023-01-02T13:47:39.806Z,2.85
2023-01-02T13:50:43.737Z,3.08
2023-01-02T13:53:48.651Z,2.80
2023-01-02T13:57:27.318Z,2.58
2023-01-02T14:00:37.024Z,2.55
2023-01-02T14:03:39.958Z,2.60
2023-01-02T14:06:50.048Z,2.60
2023-01-02T14:10:14.578Z,2.60
2023-01-02T14:13:31.121Z,2.60
2023-01-02T14:16:54.718Z,2.63
2023-01-02T14:20:26.471Z,2.80
2023-01-02T14:23:32.714Z,2.60
2023-01-02T14:26:38.268Z,2.78
2023-01-02T14:29:52.923Z,2.58
2023-01-02T14:32:59.863Z,2.50
2023-01-02T14:36:07.280Z,2.60
2023-01-02T14:39:19.380Z,2.55
2023-01-02T14:42:47.097Z,2.60
2023-01-02T14:45:52.344Z,2.40
2023-01-02T14:49:01.142Z,2.78
2023-01-02T14:52:09.675Z,2.92
2023-01-02T14:55:17.966Z,2.50
2023-01-02T14:58:26.768Z,2.30
2023-01-02T15:01:43.442Z,2.72
2023-01-02T15:04:52.442Z,2.97
2023-01-02T15:07:59.885Z,3.10
2023-01-02T15:11:18.234Z,2.95
2023-01-02T15:14:24.066Z,2.70
2023-01-02T15:17:27.850Z,2.65
2023-01-02T15:20:34.267Z,2.53
2023-01-02T15:23:38.629Z,2.85
2023-01-02T15:26:44.724Z,3.08
2023-01-02T15:29:49.170Z,3.05
2023-01-02T15:32:51.962Z,2.65
2023-01-02T15:35:59.541Z,3.10
2023-01-02T15:39:10.061Z,2.58
2023-01-02T15:42:34.190Z,2.65
2023-01-02T15:45:38.465Z,2.70
2023-01-02T15:48:42.018Z,2.70
2023-01-02T15:51:46.476Z,3.38
2023-01-02T15:54:51.647Z,2.85
2023-01-02T15:57:55.739Z,2.85
2023-01-02T16:01:13.482Z,3.20
2023-01-02T16:04:26.599Z,2.65
2023-01-02T16:07:30.833Z,3.00
2023-01-02T16:10:33.856Z,3.20
2023-01-02T16:14:02.436Z,2.60
2023-01-02T16:17:08.523Z,2.72
2023-01-02T16:20:18.862Z,2.45
2023-01-02T16:23:23.167Z,2.75
2023-01-02T16:26:31.723Z,2.63
2023-01-02T16:29:34.642Z,2.50
2023-01-02T16:32:37.515Z,3.00
2023-01-02T16:35:40.436Z,2.78
2023-01-02T16:38:52.752Z,3.22
2023-01-02T16:42:15.856Z,2.53
2023-01-02T16:45:19.895Z,2.55
2023-01-02T16:48:25.378Z,2.90
2023-01-02T16:51:28.299Z,2.95
2023-01-02T16:54:32.531Z,2.58
2023-01-02T16:57:35.347Z,2.90
2023-01-02T17:00:43.396Z,2.88
2023-01-02T17:03:46.789Z,2.78
2023-01-02T17:06:49.682Z,2.92
2023-01-02T17:09:53.960Z,2.42
2023-01-02T17:12:56.857Z,2.53
2023-01-02T17:16:00.289Z,2.65
2023-01-02T17:19:03.291Z,2.80
2023-01-02T17:22:06.152Z,2.50
2023-01-02T17:25:14.295Z,2.63
2023-01-02T17:28:17.634Z,2.90
2023-01-02T17:31:25.507Z,2.60
2023-01-02T17:34:28.940Z,2.65
2023-01-02T17:37:31.843Z,2.65
2023-01-02T17:40:36.025Z,3.25
2023-01-02T17:43:38.867Z,2.50
2023-01-02T17:47:30.755Z,2.83
2023-01-02T17:50:24.987Z,2.78
2023-01-02T17:53:28.202Z,2.70
2023-01-02T17:56:33.309Z,2.70
2023-01-02T17:59:36.549Z,2.67
2023-01-02T18:02:39.635Z,2.85
2023-01-02T18:05:42.584Z,2.40
2023-01-02T18:08:46.339Z,2.80
2023-01-02T18:11:50.552Z,2.53
2023-01-02T18:14:56.491Z,3.10
2023-01-02T18:18:02.358Z,2.60
2023-01-02T18:21:11.917Z,2.33
2023-01-02T18:24:21.483Z,2.20
2023-01-02T18:27:27.674Z,3.00
2023-01-02T18:30:30.662Z,2.90
2023-01-02T18:33:34.212Z,2.13
2023-01-02T18:36:38.354Z,2.42
2023-01-02T18:39:43.828Z,2.47
2023-01-02T18:42:51.268Z,2.60
2023-01-02T18:45:57.491Z,2.38
2023-01-02T18:49:03.447Z,2.30
2023-01-02T18:52:22.543Z,2.60
2023-01-02T18:55:28.010Z,2.58
2023-01-02T18:58:40.775Z,2.45
2023-01-02T19:01:50.521Z,2.63
2023-01-02T19:04:53.360Z,2.90
2023-01-02T19:08:05.978Z,2.28
2023-01-02T19:11:29.410Z,2.50
2023-01-02T19:14:40.370Z,2.33
2023-01-02T19:17:43.217Z,2.17
2023-01-02T19:20:48.355Z,2.58
2023-01-02T19:23:58.118Z,2.83
2023-01-02T19:27:01.088Z,2.60
2023-01-02T19:30:08.526Z,2.15
2023-01-02T19:33:34.435Z,2.30
2023-01-02T19:36:40.130Z,2.33
2023-01-02T19:39:48.109Z,2.63
2023-01-02T19:42:52.372Z,2.60
2023-01-02T19:45:56.711Z,2.65
2023-01-02T19:48:59.580Z,2.28
2023-01-02T19:52:03.041Z,2.60
2023-01-02T19:55:10.012Z,2.13
2023-01-02T19:58:13.130Z,2.40
2023-01-02T20:01:17.379Z,2.30
2023-01-02T20:04:20.289Z,2.30
2023-01-02T20:07:24.785Z,2.22
2023-01-02T20:10:27.705Z,2.20
2023-01-02T20:13:30.579Z,2.45
2023-01-02T20:16:35.196Z,2.47
2023-01-02T20:19:39.674Z,2.33
2023-01-02T20:22:43.496Z,2.10
2023-01-02T20:25:47.123Z,2.38
2023-01-02T20:28:50.014Z,2.30
2023-01-02T20:31:55.263Z,2.10
2023-01-02T20:34:58.082Z,2.28
2023-01-02T20:38:00.900Z,2.30
2023-01-02T20:41:03.800Z,2.20
2023-01-02T20:44:07.184Z,2.08
2023-01-02T20:47:11.881Z,2.15
2023-01-02T20:50:14.769Z,2.20
2023-01-02T20:53:17.634Z,2.53
2023-01-02T20:56:20.579Z,2.20
2023-01-02T20:59:24.270Z,1.88
2023-01-02T21:02:28.645Z,2.38
2023-01-02T21:05:31.700Z,2.05
2023-01-02T21:08:36.603Z,2.00
2023-01-02T21:11:39.509Z,2.60
2023-01-02T21:14:42.356Z,2.30
2023-01-02T21:17:46.597Z,2.10
2023-01-02T21:20:51.984Z,2.05
2023-01-02T21:23:54.924Z,2.20
2023-01-02T21:26:57.898Z,2.35
2023-01-02T21:30:00.724Z,2.97
2023-01-02T21:33:05.112Z,2.17
2023-01-02T21:36:10.929Z,2.50
2023-01-02T21:39:13.963Z,2.45
2023-01-02T21:42:17.140Z,2.05
2023-01-02T21:45:20.121Z,2.45
2023-01-02T21:48:24.350Z,2.08
2023-01-02T21:51:32.369Z,2.28
2023-01-02T21:54:35.986Z,2.10
2023-01-02T21:58:11.695Z,2.15
2023-01-02T22:01:01.797Z,1.95
2023-01-02T22:04:06.533Z,2.10
2023-01-02T22:10:32.300Z,2.50
2023-01-02T22:13:35.131Z,2.20
2023-01-02T22:16:38.189Z,2.40
2023-01-02T22:19:42.492Z,1.90
2023-01-02T22:22:45.457Z,2.00
2023-01-02T22:25:48.397Z,2.03
2023-01-02T22:28:51.582Z,1.95
2023-01-02T22:31:57.485Z,2.10
2023-01-02T22:35:03.181Z,2.00
2023-01-02T22:38:06.005Z,1.95
2023-01-02T22:41:10.472Z,1.92
2023-01-02T22:44:16.120Z,1.67
2023-01-02T22:47:26.012Z,2.28
2023-01-02T22:50:36.925Z,1.98
2023-01-02T22:53:40.966Z,2.15
2023-01-02T22:56:44.204Z,2.10
2023-01-02T22:59:47.255Z,2.03
2023-01-02T23:02:50.882Z,2.08
2023-01-02T23:05:55.065Z,2.15
2023-01-02T23:08:57.916Z,1.88
2023-01-02T23:12:00.788Z,1.83
2023-01-02T23:15:03.757Z,2.05
2023-01-02T23:18:24.310Z,1.98
2023-01-02T23:21:30.917Z,2.08
2023-01-02T23:24:35.672Z,1.73
2023-01-02T23:27:38.534Z,1.90
2023-01-02T23:30:41.368Z,1.75
2023-01-02T23:33:44.199Z,2.08
2023-01-02T23:36:49.025Z,1.83
2023-01-02T23:39:51.953Z,2.20
2023-01-02T23:42:54.761Z,2.00
2023-01-02T23:45:57.697Z,1.70
2023-01-02T23:49:01.081Z,1.80
2023-01-02T23:52:06.743Z,1.83
2023-01-02T23:55:10.511Z,1.90
2023-01-02T23:58:13.316Z,2.25
